sensor_id;sensor_type;location;lat;lon;timestamp;P1;durP1;ratioP1;P2;durP2;ratioP2
58516;SDS011;44308;50.810;0.284;2022-10-15T00:00:05;13.75;;;10.88;;
58516;SDS011;44308;50.810;0.284;2022-10-15T00:02:32;27.13;;;19.08;;
58516;SDS011;44308;50.810;0.284;2022-10-15T00:04:58;67.60;;;36.65;;
58516;SDS011;44308;50.810;0.284;2022-10-15T00:07:24;58.85;;;31.65;;
58516;SDS011;44308;50.810;0.284;2022-10-15T00:09:49;45.85;;;28.25;;
58516;SDS011;44308;50.810;0.284;2022-10-15T00:12:18;46.90;;;31.30;;
58516;SDS011;44308;50.810;0.284;2022-10-15T00:14:44;32.30;;;24.92;;
58516;SDS011;44308;50.810;0.284;2022-10-15T00:17:10;50.53;;;27.50;;
58516;SDS011;44308;50.810;0.284;2022-10-15T00:19:35;26.08;;;21.65;;
58516;SDS011;44308;50.810;0.284;2022-10-15T00:22:01;44.72;;;26.60;;
58516;SDS011;44308;50.810;0.284;2022-10-15T00:28:08;16.50;;;14.90;;
58516;SDS011;44308;50.810;0.284;2022-10-15T00:30:33;22.48;;;15.38;;
58516;SDS011;44308;50.810;0.284;2022-10-15T00:32:59;18.60;;;16.73;;
58516;SDS011;44308;50.810;0.284;2022-10-15T00:35:27;16.58;;;14.88;;
58516;SDS011;44308;50.810;0.284;2022-10-15T00:37:53;17.40;;;15.68;;
58516;SDS011;44308;50.810;0.284;2022-10-15T00:40:18;20.88;;;16.20;;
58516;SDS011;44308;50.810;0.284;2022-10-15T00:42:44;77.03;;;19.63;;
58516;SDS011;44308;50.810;0.284;2022-10-15T00:47:55;34.80;;;17.35;;
58516;SDS011;44308;50.810;0.284;2022-10-15T00:50:22;196.27;;;17.50;;
58516;SDS011;44308;50.810;0.284;2022-10-15T00:52:59;113.85;;;17.85;;
58516;SDS011;44308;50.810;0.284;2022-10-15T00:55:30;105.35;;;16.73;;
58516;SDS011;44308;50.810;0.284;2022-10-15T00:57:59;112.82;;;17.02;;
58516;SDS011;44308;50.810;0.284;2022-10-15T01:00:30;49.28;;;16.23;;
58516;SDS011;44308;50.810;0.284;2022-10-15T01:02:56;45.10;;;18.67;;
58516;SDS011;44308;50.810;0.284;2022-10-15T01:07:54;75.50;;;18.83;;
58516;SDS011;44308;50.810;0.284;2022-10-15T01:10:19;106.93;;;19.42;;
58516;SDS011;44308;50.810;0.284;2022-10-15T01:18:39;25.13;;;21.92;;
58516;SDS011;44308;50.810;0.284;2022-10-15T01:21:24;34.83;;;25.42;;
58516;SDS011;44308;50.810;0.284;2022-10-15T01:29:41;17.17;;;15.38;;
58516;SDS011;44308;50.810;0.284;2022-10-15T01:32:36;11.27;;;9.98;;
58516;SDS011;44308;50.810;0.284;2022-10-15T01:43:56;9.45;;;8.75;;
58516;SDS011;44308;50.810;0.284;2022-10-15T01:49:07;23.40;;;11.30;;
58516;SDS011;44308;50.810;0.284;2022-10-15T01:51:36;16.92;;;11.82;;
58516;SDS011;44308;50.810;0.284;2022-10-15T01:54:06;18.95;;;12.23;;
58516;SDS011;44308;50.810;0.284;2022-10-15T01:56:36;12.50;;;11.20;;
58516;SDS011;44308;50.810;0.284;2022-10-15T01:59:02;33.08;;;13.65;;
58516;SDS011;44308;50.810;0.284;2022-10-15T02:01:31;13.90;;;12.48;;
58516;SDS011;44308;50.810;0.284;2022-10-15T02:03:56;15.65;;;13.23;;
58516;SDS011;44308;50.810;0.284;2022-10-15T02:06:25;13.75;;;12.35;;
58516;SDS011;44308;50.810;0.284;2022-10-15T02:09:07;13.77;;;12.50;;
58516;SDS011;44308;50.810;0.284;2022-10-15T02:14:42;18.45;;;14.73;;
58516;SDS011;44308;50.810;0.284;2022-10-15T02:17:18;16.85;;;15.38;;
58516;SDS011;44308;50.810;0.284;2022-10-15T02:20:05;14.82;;;13.52;;
58516;SDS011;44308;50.810;0.284;2022-10-15T02:23:02;14.73;;;13.52;;
58516;SDS011;44308;50.810;0.284;2022-10-15T02:25:27;13.90;;;12.50;;
58516;SDS011;44308;50.810;0.284;2022-10-15T02:27:55;14.65;;;12.32;;
58516;SDS011;44308;50.810;0.284;2022-10-15T02:30:22;13.13;;;11.85;;
58516;SDS011;44308;50.810;0.284;2022-10-15T02:32:50;12.50;;;11.27;;
58516;SDS011;44308;50.810;0.284;2022-10-15T02:35:19;12.00;;;10.88;;
58516;SDS011;44308;50.810;0.284;2022-10-15T02:37:47;13.52;;;12.13;;
58516;SDS011;44308;50.810;0.284;2022-10-15T02:40:15;14.07;;;12.73;;
58516;SDS011;44308;50.810;0.284;2022-10-15T02:42:41;13.02;;;11.82;;
58516;SDS011;44308;50.810;0.284;2022-10-15T02:45:07;12.55;;;11.43;;
58516;SDS011;44308;50.810;0.284;2022-10-15T02:47:33;13.68;;;10.63;;
58516;SDS011;44308;50.810;0.284;2022-10-15T02:49:59;11.63;;;10.50;;
58516;SDS011;44308;50.810;0.284;2022-10-15T02:52:25;11.48;;;10.30;;
58516;SDS011;44308;50.810;0.284;2022-10-15T02:54:52;12.98;;;10.65;;
58516;SDS011;44308;50.810;0.284;2022-10-15T02:57:18;11.70;;;10.65;;
58516;SDS011;44308;50.810;0.284;2022-10-15T02:59:44;11.38;;;9.68;;
58516;SDS011;44308;50.810;0.284;2022-10-15T03:02:09;12.43;;;11.40;;
58516;SDS011;44308;50.810;0.284;2022-10-15T03:04:35;11.00;;;9.90;;
58516;SDS011;44308;50.810;0.284;2022-10-15T03:07:01;11.98;;;10.55;;
58516;SDS011;44308;50.810;0.284;2022-10-15T03:09:26;12.48;;;10.90;;
58516;SDS011;44308;50.810;0.284;2022-10-15T03:11:52;12.80;;;8.95;;
58516;SDS011;44308;50.810;0.284;2022-10-15T03:14:18;13.60;;;11.30;;
58516;SDS011;44308;50.810;0.284;2022-10-15T03:16:43;11.45;;;10.35;;
58516;SDS011;44308;50.810;0.284;2022-10-15T03:19:09;9.88;;;8.90;;
58516;SDS011;44308;50.810;0.284;2022-10-15T03:21:35;12.30;;;8.00;;
58516;SDS011;44308;50.810;0.284;2022-10-15T03:24:01;10.70;;;8.57;;
58516;SDS011;44308;50.810;0.284;2022-10-15T03:26:27;8.45;;;7.70;;
58516;SDS011;44308;50.810;0.284;2022-10-15T03:28:53;8.32;;;7.53;;
58516;SDS011;44308;50.810;0.284;2022-10-15T03:31:18;8.95;;;7.18;;
58516;SDS011;44308;50.810;0.284;2022-10-15T03:33:45;8.45;;;7.47;;
58516;SDS011;44308;50.810;0.284;2022-10-15T03:36:10;11.18;;;8.77;;
58516;SDS011;44308;50.810;0.284;2022-10-15T03:38:36;9.80;;;8.35;;
58516;SDS011;44308;50.810;0.284;2022-10-15T03:41:02;10.98;;;8.23;;
58516;SDS011;44308;50.810;0.284;2022-10-15T03:43:28;10.45;;;9.45;;
58516;SDS011;44308;50.810;0.284;2022-10-15T03:49:16;13.35;;;9.98;;
58516;SDS011;44308;50.810;0.284;2022-10-15T03:51:42;10.55;;;9.43;;
58516;SDS011;44308;50.810;0.284;2022-10-15T03:54:07;12.20;;;9.25;;
58516;SDS011;44308;50.810;0.284;2022-10-15T03:56:34;10.95;;;9.13;;
58516;SDS011;44308;50.810;0.284;2022-10-15T03:59:00;12.68;;;8.63;;
58516;SDS011;44308;50.810;0.284;2022-10-15T04:01:26;9.20;;;8.32;;
58516;SDS011;44308;50.810;0.284;2022-10-15T04:03:51;9.38;;;8.60;;
58516;SDS011;44308;50.810;0.284;2022-10-15T04:06:19;10.15;;;9.30;;
58516;SDS011;44308;50.810;0.284;2022-10-15T04:08:45;13.45;;;9.45;;
58516;SDS011;44308;50.810;0.284;2022-10-15T04:11:10;12.45;;;9.45;;
58516;SDS011;44308;50.810;0.284;2022-10-15T04:13:36;12.45;;;9.02;;
58516;SDS011;44308;50.810;0.284;2022-10-15T04:16:05;14.98;;;9.75;;
58516;SDS011;44308;50.810;0.284;2022-10-15T04:18:31;10.48;;;9.57;;
58516;SDS011;44308;50.810;0.284;2022-10-15T04:20:57;11.48;;;10.38;;
58516;SDS011;44308;50.810;0.284;2022-10-15T04:23:24;10.98;;;9.80;;
58516;SDS011;44308;50.810;0.284;2022-10-15T04:25:50;11.60;;;10.23;;
58516;SDS011;44308;50.810;0.284;2022-10-15T04:28:15;14.40;;;9.85;;
58516;SDS011;44308;50.810;0.284;2022-10-15T04:30:41;13.23;;;10.57;;
58516;SDS011;44308;50.810;0.284;2022-10-15T04:33:07;13.00;;;10.52;;
58516;SDS011;44308;50.810;0.284;2022-10-15T04:35:33;12.85;;;11.48;;
58516;SDS011;44308;50.810;0.284;2022-10-15T04:37:59;16.08;;;11.55;;
58516;SDS011;44308;50.810;0.284;2022-10-15T04:40:26;20.98;;;14.02;;
58516;SDS011;44308;50.810;0.284;2022-10-15T04:42:52;25.08;;;16.15;;
58516;SDS011;44308;50.810;0.284;2022-10-15T04:45:17;19.52;;;15.25;;
58516;SDS011;44308;50.810;0.284;2022-10-15T04:47:44;19.40;;;13.77;;
58516;SDS011;44308;50.810;0.284;2022-10-15T04:50:09;19.23;;;14.98;;
58516;SDS011;44308;50.810;0.284;2022-10-15T04:52:35;15.88;;;14.02;;
58516;SDS011;44308;50.810;0.284;2022-10-15T04:55:03;21.45;;;14.52;;
58516;SDS011;44308;50.810;0.284;2022-10-15T04:57:29;19.70;;;14.13;;
58516;SDS011;44308;50.810;0.284;2022-10-15T04:59:55;18.73;;;13.50;;
58516;SDS011;44308;50.810;0.284;2022-10-15T05:02:21;25.20;;;14.65;;
58516;SDS011;44308;50.810;0.284;2022-10-15T05:04:47;22.52;;;18.42;;
58516;SDS011;44308;50.810;0.284;2022-10-15T05:07:13;23.27;;;15.55;;
58516;SDS011;44308;50.810;0.284;2022-10-15T05:09:39;21.60;;;15.75;;
58516;SDS011;44308;50.810;0.284;2022-10-15T05:12:04;13.63;;;12.23;;
58516;SDS011;44308;50.810;0.284;2022-10-15T05:14:31;15.85;;;13.20;;
58516;SDS011;44308;50.810;0.284;2022-10-15T05:16:57;16.88;;;12.80;;
58516;SDS011;44308;50.810;0.284;2022-10-15T05:19:22;12.18;;;11.18;;
58516;SDS011;44308;50.810;0.284;2022-10-15T05:21:48;13.55;;;12.05;;
58516;SDS011;44308;50.810;0.284;2022-10-15T05:24:14;12.60;;;11.32;;
58516;SDS011;44308;50.810;0.284;2022-10-15T05:26:39;16.00;;;12.25;;
58516;SDS011;44308;50.810;0.284;2022-10-15T05:29:05;13.55;;;11.30;;
58516;SDS011;44308;50.810;0.284;2022-10-15T05:31:31;12.88;;;11.35;;
58516;SDS011;44308;50.810;0.284;2022-10-15T05:33:57;12.40;;;11.20;;
58516;SDS011;44308;50.810;0.284;2022-10-15T05:36:27;12.35;;;11.15;;
58516;SDS011;44308;50.810;0.284;2022-10-15T05:38:57;14.88;;;11.90;;
58516;SDS011;44308;50.810;0.284;2022-10-15T05:41:25;16.67;;;12.63;;
58516;SDS011;44308;50.810;0.284;2022-10-15T05:43:52;13.43;;;11.52;;
58516;SDS011;44308;50.810;0.284;2022-10-15T05:46:19;30.38;;;15.00;;
58516;SDS011;44308;50.810;0.284;2022-10-15T05:48:49;14.52;;;12.82;;
58516;SDS011;44308;50.810;0.284;2022-10-15T05:51:16;18.45;;;12.70;;
58516;SDS011;44308;50.810;0.284;2022-10-15T05:53:42;13.70;;;12.30;;
58516;SDS011;44308;50.810;0.284;2022-10-15T05:56:11;13.68;;;11.85;;
58516;SDS011;44308;50.810;0.284;2022-10-15T05:58:37;11.65;;;10.48;;
58516;SDS011;44308;50.810;0.284;2022-10-15T06:01:04;14.48;;;11.85;;
58516;SDS011;44308;50.810;0.284;2022-10-15T06:03:32;12.40;;;11.02;;
58516;SDS011;44308;50.810;0.284;2022-10-15T06:05:58;15.75;;;11.02;;
58516;SDS011;44308;50.810;0.284;2022-10-15T06:08:24;12.80;;;10.90;;
58516;SDS011;44308;50.810;0.284;2022-10-15T06:10:51;10.80;;;9.73;;
58516;SDS011;44308;50.810;0.284;2022-10-15T06:13:17;10.70;;;8.55;;
58516;SDS011;44308;50.810;0.284;2022-10-15T06:15:43;10.50;;;8.80;;
58516;SDS011;44308;50.810;0.284;2022-10-15T06:18:10;10.98;;;9.07;;
58516;SDS011;44308;50.810;0.284;2022-10-15T06:20:39;12.40;;;9.35;;
58516;SDS011;44308;50.810;0.284;2022-10-15T06:23:06;10.35;;;8.90;;
58516;SDS011;44308;50.810;0.284;2022-10-15T06:25:33;15.43;;;9.52;;
58516;SDS011;44308;50.810;0.284;2022-10-15T06:28:05;18.45;;;8.82;;
58516;SDS011;44308;50.810;0.284;2022-10-15T06:30:31;12.80;;;8.75;;
58516;SDS011;44308;50.810;0.284;2022-10-15T06:32:57;8.57;;;7.35;;
58516;SDS011;44308;50.810;0.284;2022-10-15T06:35:24;9.98;;;6.45;;
58516;SDS011;44308;50.810;0.284;2022-10-15T06:37:50;11.18;;;6.65;;
58516;SDS011;44308;50.810;0.284;2022-10-15T06:40:17;5.80;;;5.22;;
58516;SDS011;44308;50.810;0.284;2022-10-15T06:42:42;6.25;;;5.38;;
58516;SDS011;44308;50.810;0.284;2022-10-15T06:45:09;12.95;;;5.63;;
58516;SDS011;44308;50.810;0.284;2022-10-15T06:47:36;7.90;;;5.85;;
58516;SDS011;44308;50.810;0.284;2022-10-15T06:50:02;9.10;;;5.38;;
58516;SDS011;44308;50.810;0.284;2022-10-15T06:52:29;8.18;;;4.80;;
58516;SDS011;44308;50.810;0.284;2022-10-15T06:54:58;4.93;;;4.50;;
58516;SDS011;44308;50.810;0.284;2022-10-15T06:57:26;5.35;;;4.88;;
58516;SDS011;44308;50.810;0.284;2022-10-15T06:59:52;7.53;;;4.80;;
58516;SDS011;44308;50.810;0.284;2022-10-15T07:02:18;5.10;;;3.72;;
58516;SDS011;44308;50.810;0.284;2022-10-15T07:04:44;4.53;;;3.40;;
58516;SDS011;44308;50.810;0.284;2022-10-15T07:07:10;5.10;;;3.45;;
58516;SDS011;44308;50.810;0.284;2022-10-15T07:09:36;6.18;;;3.30;;
58516;SDS011;44308;50.810;0.284;2022-10-15T07:12:02;7.90;;;3.58;;
58516;SDS011;44308;50.810;0.284;2022-10-15T07:14:28;14.55;;;3.90;;
58516;SDS011;44308;50.810;0.284;2022-10-15T07:16:54;5.10;;;2.92;;
58516;SDS011;44308;50.810;0.284;2022-10-15T07:19:20;5.00;;;2.92;;
58516;SDS011;44308;50.810;0.284;2022-10-15T07:21:46;5.93;;;2.92;;
58516;SDS011;44308;50.810;0.284;2022-10-15T07:24:12;14.25;;;3.42;;
58516;SDS011;44308;50.810;0.284;2022-10-15T07:26:38;11.35;;;3.50;;
58516;SDS011;44308;50.810;0.284;2022-10-15T07:29:03;12.27;;;4.10;;
58516;SDS011;44308;50.810;0.284;2022-10-15T07:31:29;11.73;;;4.28;;
58516;SDS011;44308;50.810;0.284;2022-10-15T07:33:55;19.15;;;4.20;;
58516;SDS011;44308;50.810;0.284;2022-10-15T07:36:21;12.20;;;3.28;;
58516;SDS011;44308;50.810;0.284;2022-10-15T07:38:47;11.27;;;3.78;;
58516;SDS011;44308;50.810;0.284;2022-10-15T07:41:13;12.85;;;3.25;;
58516;SDS011;44308;50.810;0.284;2022-10-15T07:43:39;11.30;;;3.00;;
58516;SDS011;44308;50.810;0.284;2022-10-15T07:46:04;24.13;;;3.47;;
58516;SDS011;44308;50.810;0.284;2022-10-15T07:48:30;12.05;;;3.13;;
58516;SDS011;44308;50.810;0.284;2022-10-15T07:51:00;11.77;;;3.30;;
58516;SDS011;44308;50.810;0.284;2022-10-15T07:53:28;5.97;;;2.22;;
58516;SDS011;44308;50.810;0.284;2022-10-15T07:55:59;5.40;;;2.67;;
58516;SDS011;44308;50.810;0.284;2022-10-15T07:58:26;17.02;;;3.20;;
58516;SDS011;44308;50.810;0.284;2022-10-15T08:00:54;11.48;;;2.63;;
58516;SDS011;44308;50.810;0.284;2022-10-15T08:03:20;6.68;;;2.50;;
58516;SDS011;44308;50.810;0.284;2022-10-15T08:05:46;10.25;;;2.97;;
58516;SDS011;44308;50.810;0.284;2022-10-15T08:08:11;7.60;;;2.55;;
58516;SDS011;44308;50.810;0.284;2022-10-15T08:10:37;10.75;;;2.85;;
58516;SDS011;44308;50.810;0.284;2022-10-15T08:13:03;17.38;;;2.85;;
58516;SDS011;44308;50.810;0.284;2022-10-15T08:15:30;11.40;;;3.20;;
58516;SDS011;44308;50.810;0.284;2022-10-15T08:17:55;8.82;;;2.20;;
58516;SDS011;44308;50.810;0.284;2022-10-15T08:20:21;14.15;;;3.35;;
58516;SDS011;44308;50.810;0.284;2022-10-15T08:22:46;9.35;;;2.38;;
58516;SDS011;44308;50.810;0.284;2022-10-15T08:25:12;9.07;;;3.10;;
58516;SDS011;44308;50.810;0.284;2022-10-15T08:27:38;15.95;;;3.97;;
58516;SDS011;44308;50.810;0.284;2022-10-15T08:30:04;8.45;;;3.42;;
58516;SDS011;44308;50.810;0.284;2022-10-15T08:32:30;8.02;;;2.40;;
58516;SDS011;44308;50.810;0.284;2022-10-15T08:34:57;19.05;;;3.20;;
58516;SDS011;44308;50.810;0.284;2022-10-15T08:37:23;13.95;;;3.30;;
58516;SDS011;44308;50.810;0.284;2022-10-15T08:39:49;9.48;;;1.85;;
58516;SDS011;44308;50.810;0.284;2022-10-15T08:45:04;5.15;;;1.90;;
58516;SDS011;44308;50.810;0.284;2022-10-15T08:47:56;9.25;;;2.95;;
58516;SDS011;44308;50.810;0.284;2022-10-15T08:50:39;7.22;;;1.80;;
58516;SDS011;44308;50.810;0.284;2022-10-15T08:53:05;6.28;;;2.70;;
58516;SDS011;44308;50.810;0.284;2022-10-15T08:55:37;6.40;;;2.38;;
58516;SDS011;44308;50.810;0.284;2022-10-15T09:00:59;8.43;;;2.53;;
58516;SDS011;44308;50.810;0.284;2022-10-15T09:03:33;5.43;;;2.53;;
58516;SDS011;44308;50.810;0.284;2022-10-15T09:06:19;14.18;;;2.50;;
58516;SDS011;44308;50.810;0.284;2022-10-15T09:14:40;10.75;;;2.30;;
58516;SDS011;44308;50.810;0.284;2022-10-15T09:17:42;7.30;;;1.95;;
58516;SDS011;44308;50.810;0.284;2022-10-15T09:22:30;6.53;;;2.30;;
58516;SDS011;44308;50.810;0.284;2022-10-15T09:24:57;11.32;;;2.95;;
58516;SDS011;44308;50.810;0.284;2022-10-15T09:27:32;8.70;;;2.85;;
58516;SDS011;44308;50.810;0.284;2022-10-15T09:32:34;10.70;;;2.20;;
58516;SDS011;44308;50.810;0.284;2022-10-15T09:35:23;6.38;;;2.00;;
58516;SDS011;44308;50.810;0.284;2022-10-15T09:43:03;9.70;;;1.75;;
58516;SDS011;44308;50.810;0.284;2022-10-15T09:45:32;12.68;;;2.22;;
58516;SDS011;44308;50.810;0.284;2022-10-15T09:47:58;5.93;;;2.35;;
58516;SDS011;44308;50.810;0.284;2022-10-15T09:50:25;9.27;;;2.40;;
58516;SDS011;44308;50.810;0.284;2022-10-15T09:58:51;5.95;;;1.75;;
58516;SDS011;44308;50.810;0.284;2022-10-15T10:01:20;8.40;;;2.15;;
58516;SDS011;44308;50.810;0.284;2022-10-15T10:03:54;7.55;;;2.33;;
58516;SDS011;44308;50.810;0.284;2022-10-15T10:06:45;4.90;;;1.58;;
58516;SDS011;44308;50.810;0.284;2022-10-15T10:09:36;5.13;;;1.95;;
58516;SDS011;44308;50.810;0.284;2022-10-15T10:12:07;5.65;;;2.42;;
58516;SDS011;44308;50.810;0.284;2022-10-15T10:14:45;5.72;;;2.20;;
58516;SDS011;44308;50.810;0.284;2022-10-15T10:17:19;8.48;;;2.42;;
58516;SDS011;44308;50.810;0.284;2022-10-15T10:25:26;5.85;;;2.25;;
58516;SDS011;44308;50.810;0.284;2022-10-15T10:30:34;4.38;;;1.98;;
58516;SDS011;44308;50.810;0.284;2022-10-15T10:33:02;8.32;;;2.42;;
58516;SDS011;44308;50.810;0.284;2022-10-15T10:35:33;5.93;;;1.88;;
58516;SDS011;44308;50.810;0.284;2022-10-15T10:38:17;5.28;;;1.60;;
58516;SDS011;44308;50.810;0.284;2022-10-15T10:41:04;9.65;;;2.33;;
58516;SDS011;44308;50.810;0.284;2022-10-15T10:43:35;8.73;;;2.25;;
58516;SDS011;44308;50.810;0.284;2022-10-15T10:48:40;8.07;;;2.25;;
58516;SDS011;44308;50.810;0.284;2022-10-15T10:51:12;4.97;;;1.60;;
58516;SDS011;44308;50.810;0.284;2022-10-15T10:53:47;7.55;;;2.63;;
58516;SDS011;44308;50.810;0.284;2022-10-15T10:56:20;9.35;;;2.20;;
58516;SDS011;44308;50.810;0.284;2022-10-15T10:58:55;10.38;;;1.52;;
58516;SDS011;44308;50.810;0.284;2022-10-15T11:01:25;9.48;;;1.88;;
58516;SDS011;44308;50.810;0.284;2022-10-15T11:03:52;8.57;;;2.38;;
58516;SDS011;44308;50.810;0.284;2022-10-15T11:14:02;5.65;;;2.00;;
58516;SDS011;44308;50.810;0.284;2022-10-15T11:16:51;10.32;;;2.40;;
58516;SDS011;44308;50.810;0.284;2022-10-15T11:22:21;7.47;;;2.15;;
58516;SDS011;44308;50.810;0.284;2022-10-15T11:35:54;11.93;;;2.15;;
58516;SDS011;44308;50.810;0.284;2022-10-15T11:38:41;12.85;;;2.78;;
58516;SDS011;44308;50.810;0.284;2022-10-15T11:41:21;13.73;;;2.80;;
58516;SDS011;44308;50.810;0.284;2022-10-15T11:44:12;10.13;;;2.65;;
58516;SDS011;44308;50.810;0.284;2022-10-15T11:47:12;11.88;;;2.00;;
58516;SDS011;44308;50.810;0.284;2022-10-15T11:50:15;22.42;;;3.20;;
58516;SDS011;44308;50.810;0.284;2022-10-15T11:56:05;10.43;;;3.05;;
58516;SDS011;44308;50.810;0.284;2022-10-15T12:04:00;8.10;;;2.23;;
58516;SDS011;44308;50.810;0.284;2022-10-15T12:06:32;9.10;;;2.25;;
58516;SDS011;44308;50.810;0.284;2022-10-15T12:09:01;8.05;;;2.78;;
58516;SDS011;44308;50.810;0.284;2022-10-15T12:11:44;20.25;;;3.75;;
58516;SDS011;44308;50.810;0.284;2022-10-15T12:14:17;14.45;;;3.72;;
58516;SDS011;44308;50.810;0.284;2022-10-15T12:28:20;5.75;;;1.77;;
58516;SDS011;44308;50.810;0.284;2022-10-15T12:30:52;12.00;;;1.98;;
58516;SDS011;44308;50.810;0.284;2022-10-15T12:33:33;6.10;;;2.08;;
58516;SDS011;44308;50.810;0.284;2022-10-15T12:36:23;7.60;;;2.55;;
58516;SDS011;44308;50.810;0.284;2022-10-15T12:44:14;5.88;;;1.67;;
58516;SDS011;44308;50.810;0.284;2022-10-15T12:46:54;6.88;;;1.65;;
58516;SDS011;44308;50.810;0.284;2022-10-15T12:51:55;4.18;;;2.40;;
58516;SDS011;44308;50.810;0.284;2022-10-15T12:54:41;8.85;;;2.65;;
58516;SDS011;44308;50.810;0.284;2022-10-15T12:57:55;8.27;;;2.95;;
58516;SDS011;44308;50.810;0.284;2022-10-15T13:00:02;6.93;;;3.25;;
58516;SDS011;44308;50.810;0.284;2022-10-15T13:02:47;8.48;;;2.22;;
58516;SDS011;44308;50.810;0.284;2022-10-15T13:05:24;6.38;;;1.23;;
58516;SDS011;44308;50.810;0.284;2022-10-15T13:07:59;5.15;;;1.15;;
58516;SDS011;44308;50.810;0.284;2022-10-15T13:10:28;3.60;;;1.20;;
58516;SDS011;44308;50.810;0.284;2022-10-15T13:13:00;3.45;;;0.95;;
58516;SDS011;44308;50.810;0.284;2022-10-15T13:15:28;5.38;;;1.20;;
58516;SDS011;44308;50.810;0.284;2022-10-15T13:17:56;11.45;;;1.88;;
58516;SDS011;44308;50.810;0.284;2022-10-15T13:25:50;8.60;;;1.50;;
58516;SDS011;44308;50.810;0.284;2022-10-15T13:28:30;2.17;;;0.90;;
58516;SDS011;44308;50.810;0.284;2022-10-15T13:30:58;8.93;;;2.13;;
58516;SDS011;44308;50.810;0.284;2022-10-15T13:33:26;10.80;;;1.58;;
58516;SDS011;44308;50.810;0.284;2022-10-15T13:35:52;8.15;;;1.50;;
58516;SDS011;44308;50.810;0.284;2022-10-15T13:38:22;8.70;;;1.58;;
58516;SDS011;44308;50.810;0.284;2022-10-15T13:40:51;7.32;;;1.95;;
58516;SDS011;44308;50.810;0.284;2022-10-15T13:43:22;11.35;;;1.65;;
58516;SDS011;44308;50.810;0.284;2022-10-15T13:45:54;15.18;;;2.20;;
58516;SDS011;44308;50.810;0.284;2022-10-15T13:48:21;7.93;;;2.07;;
58516;SDS011;44308;50.810;0.284;2022-10-15T13:50:55;11.93;;;2.22;;
58516;SDS011;44308;50.810;0.284;2022-10-15T13:55:55;8.15;;;2.13;;
58516;SDS011;44308;50.810;0.284;2022-10-15T13:58:33;11.43;;;2.40;;
58516;SDS011;44308;50.810;0.284;2022-10-15T14:01:13;8.68;;;1.70;;
58516;SDS011;44308;50.810;0.284;2022-10-15T14:06:32;8.90;;;2.15;;
58516;SDS011;44308;50.810;0.284;2022-10-15T14:09:00;13.88;;;3.30;;
58516;SDS011;44308;50.810;0.284;2022-10-15T14:12:02;15.55;;;2.58;;
58516;SDS011;44308;50.810;0.284;2022-10-15T14:27:34;14.48;;;3.47;;
58516;SDS011;44308;50.810;0.284;2022-10-15T14:30:00;16.98;;;3.55;;
58516;SDS011;44308;50.810;0.284;2022-10-15T14:32:45;9.68;;;3.35;;
58516;SDS011;44308;50.810;0.284;2022-10-15T14:35:29;18.77;;;3.05;;
58516;SDS011;44308;50.810;0.284;2022-10-15T14:37:59;8.73;;;3.55;;
58516;SDS011;44308;50.810;0.284;2022-10-15T14:40:34;17.45;;;3.60;;
58516;SDS011;44308;50.810;0.284;2022-10-15T14:43:02;7.18;;;2.88;;
58516;SDS011;44308;50.810;0.284;2022-10-15T14:45:39;16.52;;;3.42;;
58516;SDS011;44308;50.810;0.284;2022-10-15T14:48:26;14.82;;;2.90;;
58516;SDS011;44308;50.810;0.284;2022-10-15T14:51:03;15.95;;;3.13;;
58516;SDS011;44308;50.810;0.284;2022-10-15T14:53:32;18.10;;;3.58;;
58516;SDS011;44308;50.810;0.284;2022-10-15T14:56:05;11.93;;;2.75;;
58516;SDS011;44308;50.810;0.284;2022-10-15T14:58:38;17.15;;;4.05;;
58516;SDS011;44308;50.810;0.284;2022-10-15T15:01:04;20.23;;;4.15;;
58516;SDS011;44308;50.810;0.284;2022-10-15T15:03:39;22.77;;;4.38;;
58516;SDS011;44308;50.810;0.284;2022-10-15T15:06:08;10.48;;;3.47;;
58516;SDS011;44308;50.810;0.284;2022-10-15T15:08:34;19.13;;;3.55;;
58516;SDS011;44308;50.810;0.284;2022-10-15T15:11:01;14.15;;;3.25;;
58516;SDS011;44308;50.810;0.284;2022-10-15T15:13:30;18.17;;;3.05;;
58516;SDS011;44308;50.810;0.284;2022-10-15T15:16:02;19.75;;;3.95;;
58516;SDS011;44308;50.810;0.284;2022-10-15T15:18:28;13.27;;;4.20;;
58516;SDS011;44308;50.810;0.284;2022-10-15T15:20:53;19.98;;;4.10;;
58516;SDS011;44308;50.810;0.284;2022-10-15T15:23:27;16.80;;;3.88;;
58516;SDS011;44308;50.810;0.284;2022-10-15T15:25:54;12.30;;;3.65;;
58516;SDS011;44308;50.810;0.284;2022-10-15T15:28:21;26.75;;;4.43;;
58516;SDS011;44308;50.810;0.284;2022-10-15T15:31:01;21.35;;;4.18;;
58516;SDS011;44308;50.810;0.284;2022-10-15T15:33:30;18.63;;;4.30;;
58516;SDS011;44308;50.810;0.284;2022-10-15T15:36:01;12.55;;;4.38;;
58516;SDS011;44308;50.810;0.284;2022-10-15T15:38:31;13.88;;;3.88;;
58516;SDS011;44308;50.810;0.284;2022-10-15T15:41:02;24.25;;;4.75;;
58516;SDS011;44308;50.810;0.284;2022-10-15T15:43:34;13.35;;;4.20;;
58516;SDS011;44308;50.810;0.284;2022-10-15T15:46:00;18.92;;;4.57;;
58516;SDS011;44308;50.810;0.284;2022-10-15T15:48:26;22.45;;;4.85;;
58516;SDS011;44308;50.810;0.284;2022-10-15T15:50:52;11.23;;;4.03;;
58516;SDS011;44308;50.810;0.284;2022-10-15T15:53:28;15.57;;;3.70;;
58516;SDS011;44308;50.810;0.284;2022-10-15T15:55:55;11.90;;;3.70;;
58516;SDS011;44308;50.810;0.284;2022-10-15T15:58:20;11.00;;;3.85;;
58516;SDS011;44308;50.810;0.284;2022-10-15T16:00:46;24.83;;;4.05;;
58516;SDS011;44308;50.810;0.284;2022-10-15T16:03:12;23.10;;;4.38;;
58516;SDS011;44308;50.810;0.284;2022-10-15T16:05:40;11.52;;;4.00;;
58516;SDS011;44308;50.810;0.284;2022-10-15T16:08:06;18.05;;;3.50;;
58516;SDS011;44308;50.810;0.284;2022-10-15T16:10:33;22.55;;;5.38;;
58516;SDS011;44308;50.810;0.284;2022-10-15T16:12:59;19.15;;;4.63;;
58516;SDS011;44308;50.810;0.284;2022-10-15T16:15:26;12.20;;;3.60;;
58516;SDS011;44308;50.810;0.284;2022-10-15T16:17:51;14.02;;;3.53;;
58516;SDS011;44308;50.810;0.284;2022-10-15T16:20:17;16.23;;;4.30;;
58516;SDS011;44308;50.810;0.284;2022-10-15T16:22:43;11.52;;;3.17;;
58516;SDS011;44308;50.810;0.284;2022-10-15T16:25:09;16.45;;;3.65;;
58516;SDS011;44308;50.810;0.284;2022-10-15T16:27:35;12.15;;;3.75;;
58516;SDS011;44308;50.810;0.284;2022-10-15T16:30:01;19.25;;;4.00;;
58516;SDS011;44308;50.810;0.284;2022-10-15T16:32:27;14.27;;;4.53;;
58516;SDS011;44308;50.810;0.284;2022-10-15T16:34:55;13.88;;;3.47;;
58516;SDS011;44308;50.810;0.284;2022-10-15T16:37:21;15.38;;;4.07;;
58516;SDS011;44308;50.810;0.284;2022-10-15T16:39:47;20.60;;;4.72;;
58516;SDS011;44308;50.810;0.284;2022-10-15T16:42:12;14.50;;;3.38;;
58516;SDS011;44308;50.810;0.284;2022-10-15T16:44:38;20.10;;;5.10;;
58516;SDS011;44308;50.810;0.284;2022-10-15T16:47:04;15.57;;;4.05;;
58516;SDS011;44308;50.810;0.284;2022-10-15T16:49:30;24.55;;;4.45;;
58516;SDS011;44308;50.810;0.284;2022-10-15T16:51:58;20.50;;;4.30;;
58516;SDS011;44308;50.810;0.284;2022-10-15T16:54:25;19.65;;;4.85;;
58516;SDS011;44308;50.810;0.284;2022-10-15T16:56:51;19.17;;;4.55;;
58516;SDS011;44308;50.810;0.284;2022-10-15T16:59:17;17.88;;;4.78;;
58516;SDS011;44308;50.810;0.284;2022-10-15T17:01:44;20.95;;;4.57;;
58516;SDS011;44308;50.810;0.284;2022-10-15T17:04:12;18.75;;;3.38;;
58516;SDS011;44308;50.810;0.284;2022-10-15T17:06:38;14.55;;;3.85;;
58516;SDS011;44308;50.810;0.284;2022-10-15T17:09:04;16.23;;;4.15;;
58516;SDS011;44308;50.810;0.284;2022-10-15T17:11:33;15.85;;;4.22;;
58516;SDS011;44308;50.810;0.284;2022-10-15T17:14:05;31.00;;;5.35;;
58516;SDS011;44308;50.810;0.284;2022-10-15T17:19:12;16.80;;;3.95;;